Newton, NC (28658)

6:27 AM EDT on September 04, 2015 (GMT -0400)
Cambridge Place Townhomes-Thornburg Drive, Conover | | Change Station
CLOSE
Current Station
Personal Weather Station
Location: Conover, NC
Elevation: 1017 ft
Nearby Weather Stations

Elev 1017 ft 35.71 °N, 81.20 °W | Updated 3 minutes ago

Clear
Clear
68.0 °F
Feels Like 68.0 °F
N
0.0
Wind Variable Wind from SW

Today
High -- | Low -- °F
--% Chance of Precip.
Yesterday
High -- | Low -- °F
Precip. -- in
6:59 AM 7:48 PM
Waning Gibbous, 61% visible
Pressure 29.94 in
Visibility 9.0 miles
Clouds Clear
Dew Point 62 °F
Humidity 80%
Rainfall 0.00 in
Snow Depth Not available.
UV 0 out of 12
Pollen 9.30 out of 12
Air Quality Not available.
Flu Activity Not available.
METAR KHKY 040953Z AUTO 30006KT 9SM CLR 21/18 A3001 RMK AO2 SLP137 T02060183
Pressure 29.94 in
Visibility 9.0 miles
Clouds Clear
Dew Point 62 °F
Humidity 80%
Rainfall 0.00 in
Snow Depth Not available.
UV 0 out of 12
Pollen 9.30 out of 12
Air Quality Not available.
Flu Activity Not available.
METAR KHKY 040953Z AUTO 30006KT 9SM CLR 21/18 A3001 RMK AO2 SLP137 T02060183

10-Day Weather Forecast

×

Almanac

Astronomy

Sep. 04, 2015 Rise Set
Actual Time
Civil Twilight
Nautical Twilight
Astronomical Twilight
Moon
Length of Visible Light
Length of Day
Tomorrow will be .
, % of the Moon is Illuminated

Today's Extremes

State Highs State Lows

Community

WunderPhotos

Upload Photos

1,852,146 photos uploaded!

WunderBlogs® & News

Nearby

Air Quality

  Air Quality AQ Index Pollutant
Not available.

Snow Depth

Station Depth Elevation

Earthquake Activity

City Distance Mag. Time & Date
Minimum magnitude displayed is 2.5.

Coastal Water Temperatures

Place Temperature

Stations

Nearby Weather Stations

Station Location Temp. Windchill Dew Point Humidity Wind Precip. Elev Updated Type